createdAt,value
2019-03-26T00:01:47.210Z,5.60
2019-03-26T00:04:17.402Z,5.50
2019-03-26T00:06:47.651Z,5.50
2019-03-26T00:09:18.066Z,5.50
2019-03-26T00:11:48.213Z,5.50
2019-03-26T00:14:18.814Z,5.40
2019-03-26T00:16:49.174Z,5.30
2019-03-26T00:19:20.266Z,5.30
2019-03-26T00:21:50.425Z,5.20
2019-03-26T00:24:20.706Z,5.10
2019-03-26T00:26:50.893Z,5.10
2019-03-26T00:29:21.070Z,5.10
2019-03-26T00:31:51.267Z,5.10
2019-03-26T00:34:21.450Z,5.10
2019-03-26T00:36:51.681Z,5.10
2019-03-26T00:39:22.050Z,5.10
2019-03-26T00:41:52.536Z,5.10
2019-03-26T00:44:22.689Z,5.20
2019-03-26T00:46:52.965Z,5.20
2019-03-26T00:49:23.322Z,5.20
2019-03-26T00:51:53.605Z,5.20
2019-03-26T00:54:23.771Z,5.30
2019-03-26T00:56:54.162Z,5.30
2019-03-26T00:59:24.327Z,5.40
2019-03-26T01:01:54.697Z,5.40
2019-03-26T01:04:32.802Z,5.30
2019-03-26T01:06:58.375Z,5.30
2019-03-26T01:09:28.722Z,5.30
2019-03-26T01:11:59.094Z,5.30
2019-03-26T01:14:29.436Z,5.20
2019-03-26T01:17:00.030Z,5.20
2019-03-26T01:19:30.201Z,5.20
2019-03-26T01:22:00.457Z,5.20
2019-03-26T01:24:30.629Z,5.20
2019-03-26T01:27:00.948Z,5.30
2019-03-26T01:29:31.138Z,5.30
2019-03-26T01:32:01.298Z,5.40
2019-03-26T01:34:45.189Z,5.40
2019-03-26T01:37:04.030Z,5.30
2019-03-26T01:39:35.208Z,5.20
2019-03-26T01:42:05.842Z,5.10
2019-03-26T01:44:36.029Z,5.10
2019-03-26T01:47:06.184Z,5.20
2019-03-26T01:49:36.486Z,5.20
2019-03-26T01:52:06.756Z,5.30
2019-03-26T01:54:36.922Z,5.30
2019-03-26T01:57:07.183Z,5.20
2019-03-26T01:59:37.353Z,5.20
2019-03-26T02:02:07.521Z,5.10
2019-03-26T02:04:37.782Z,5.10
2019-03-26T02:07:07.936Z,5.10
2019-03-26T02:09:38.138Z,5.10
2019-03-26T02:12:08.475Z,5.20
2019-03-26T02:14:40.182Z,5.20
2019-03-26T02:17:11.857Z,5.20
2019-03-26T02:19:42.062Z,5.10
2019-03-26T02:22:12.516Z,5.10
2019-03-26T02:24:42.970Z,5.00
2019-03-26T02:27:13.129Z,5.00
2019-03-26T02:29:43.419Z,5.00
2019-03-26T02:32:13.708Z,5.00
2019-03-26T02:34:43.868Z,5.00
2019-03-26T02:37:14.153Z,5.00
2019-03-26T02:39:44.309Z,5.10
2019-03-26T02:42:14.829Z,5.10
2019-03-26T02:44:46.490Z,5.10
2019-03-26T02:47:16.780Z,5.10
2019-03-26T02:49:47.145Z,5.10
2019-03-26T02:52:17.339Z,5.10
2019-03-26T02:54:47.507Z,5.10
2019-03-26T02:57:17.788Z,5.00
2019-03-26T02:59:47.957Z,5.00
2019-03-26T03:02:18.146Z,4.90
2019-03-26T03:04:48.437Z,4.80
2019-03-26T03:07:18.615Z,4.80
2019-03-26T03:09:48.768Z,4.80
2019-03-26T03:12:19.169Z,4.90
2019-03-26T03:14:49.370Z,4.90
2019-03-26T03:17:19.778Z,5.00
2019-03-26T03:19:50.323Z,5.00
2019-03-26T03:22:20.628Z,5.00
2019-03-26T03:24:50.865Z,5.10
2019-03-26T03:27:21.226Z,5.10
2019-03-26T03:29:51.604Z,5.10
2019-03-26T03:32:22.001Z,5.10
2019-03-26T03:34:52.341Z,5.10
2019-03-26T03:37:22.724Z,5.10
2019-03-26T03:39:53.189Z,5.10
2019-03-26T03:42:23.789Z,5.10
2019-03-26T03:44:54.248Z,5.00
2019-03-26T03:47:27.922Z,4.90
2019-03-26T03:49:59.818Z,5.00
2019-03-26T03:52:32.421Z,5.10
2019-03-26T03:55:05.740Z,5.10
2019-03-26T03:57:38.234Z,5.10
2019-03-26T04:00:11.542Z,5.10
2019-03-26T04:02:41.761Z,5.10
2019-03-26T04:05:12.186Z,5.10
2019-03-26T04:07:42.411Z,5.00
2019-03-26T04:10:12.779Z,4.90
2019-03-26T04:12:43.095Z,4.90
2019-03-26T04:15:13.266Z,4.90
2019-03-26T04:17:43.447Z,4.90
2019-03-26T04:20:13.816Z,4.90
2019-03-26T04:22:44.003Z,5.00
2019-03-26T04:25:14.282Z,5.00
2019-03-26T04:27:44.449Z,5.00
2019-03-26T04:30:17.993Z,5.00
2019-03-26T04:32:48.457Z,5.00
2019-03-26T04:35:18.648Z,5.00
2019-03-26T04:37:48.812Z,5.10
2019-03-26T04:40:18.989Z,5.10
2019-03-26T04:42:49.631Z,5.10
2019-03-26T04:45:19.818Z,5.20
2019-03-26T04:47:50.314Z,5.20
2019-03-26T04:50:20.638Z,5.20
2019-03-26T04:52:50.793Z,5.20
2019-03-26T04:55:20.977Z,5.20
2019-03-26T04:57:52.677Z,5.10
2019-03-26T05:00:23.112Z,5.10
2019-03-26T05:02:53.282Z,5.10
2019-03-26T05:05:23.668Z,5.10
2019-03-26T05:07:53.818Z,5.10
2019-03-26T05:10:24.069Z,5.20
2019-03-26T05:12:54.342Z,5.20
2019-03-26T05:15:24.530Z,5.20
2019-03-26T05:17:56.623Z,5.20
2019-03-26T05:20:26.936Z,5.20
2019-03-26T05:22:57.389Z,5.10
2019-03-26T05:25:27.606Z,5.10
2019-03-26T05:27:57.998Z,5.10
2019-03-26T05:30:28.230Z,5.00
2019-03-26T05:32:58.393Z,5.10
2019-03-26T05:35:29.015Z,5.10
2019-03-26T05:38:01.648Z,5.10
2019-03-26T05:40:32.430Z,5.10
2019-03-26T05:43:02.936Z,5.10
2019-03-26T05:45:34.921Z,5.10
2019-03-26T05:48:05.240Z,5.10
2019-03-26T05:50:35.936Z,5.00
2019-03-26T05:53:06.111Z,5.00
2019-03-26T05:55:36.519Z,5.00
2019-03-26T05:58:06.874Z,4.90
2019-03-26T06:00:37.164Z,4.90
2019-03-26T06:03:07.751Z,4.90
2019-03-26T06:05:37.940Z,4.80
2019-03-26T06:08:08.131Z,4.80
2019-03-26T06:10:38.335Z,4.80
2019-03-26T06:13:08.628Z,4.80
2019-03-26T06:15:38.978Z,4.80
2019-03-26T06:18:09.271Z,4.80
2019-03-26T06:20:39.772Z,4.80
2019-03-26T06:23:11.898Z,4.90
2019-03-26T06:25:42.111Z,4.90
2019-03-26T06:28:12.300Z,4.90
2019-03-26T06:30:42.613Z,4.90
2019-03-26T06:33:12.884Z,4.90
2019-03-26T06:35:43.169Z,5.00
2019-03-26T06:38:13.491Z,5.10
2019-03-26T06:40:43.721Z,5.10
2019-03-26T06:43:13.973Z,5.10
2019-03-26T06:45:44.259Z,5.10
2019-03-26T06:48:14.648Z,5.20
2019-03-26T06:50:44.971Z,5.30
2019-03-26T06:53:15.161Z,5.30
2019-03-26T06:55:45.490Z,5.30
2019-03-26T06:58:15.690Z,5.30
2019-03-26T07:00:46.055Z,5.30
2019-03-26T07:03:16.302Z,5.30
2019-03-26T07:05:48.324Z,5.30
2019-03-26T07:08:18.509Z,5.30
2019-03-26T07:10:49.068Z,5.20
2019-03-26T07:13:19.243Z,5.20
2019-03-26T07:15:49.937Z,5.20
2019-03-26T07:18:20.121Z,5.20
2019-03-26T07:20:50.444Z,5.30
2019-03-26T07:23:20.636Z,5.40
2019-03-26T07:25:50.873Z,5.40
2019-03-26T07:28:21.152Z,5.40
2019-03-26T07:30:51.413Z,5.40
2019-03-26T07:33:21.600Z,5.40
2019-03-26T07:35:52.270Z,5.40
2019-03-26T07:38:22.561Z,5.30
2019-03-26T07:40:53.245Z,5.30
2019-03-26T07:43:23.636Z,5.30
2019-03-26T07:45:54.444Z,5.30
2019-03-26T07:48:24.750Z,5.30
2019-03-26T07:50:55.068Z,5.30
2019-03-26T07:53:25.264Z,5.30
2019-03-26T07:55:55.477Z,5.30
2019-03-26T07:58:25.668Z,5.40
2019-03-26T08:00:55.992Z,5.40
2019-03-26T08:03:26.388Z,5.40
2019-03-26T08:05:56.732Z,5.40
2019-03-26T08:08:27.025Z,5.40
2019-03-26T08:10:57.458Z,5.40
2019-03-26T08:13:27.657Z,5.40
2019-03-26T08:15:58.078Z,5.40
2019-03-26T08:18:28.459Z,5.40
2019-03-26T08:20:58.790Z,5.50
2019-03-26T08:23:28.976Z,5.60
2019-03-26T08:25:59.702Z,5.60
2019-03-26T08:28:31.316Z,5.60
2019-03-26T08:31:01.500Z,5.60
2019-03-26T08:33:31.717Z,5.60
2019-03-26T08:36:01.911Z,5.60
2019-03-26T08:38:33.481Z,5.70
2019-03-26T08:41:04.012Z,5.80
2019-03-26T08:43:34.431Z,6.00
2019-03-26T08:46:04.725Z,6.10
2019-03-26T08:48:34.948Z,6.10
2019-03-26T08:51:05.144Z,6.20
2019-03-26T08:53:35.361Z,6.20
2019-03-26T08:56:05.857Z,6.20
2019-03-26T08:58:36.073Z,6.20
2019-03-26T09:01:06.263Z,6.30
2019-03-26T09:03:36.472Z,6.30
2019-03-26T09:06:06.811Z,6.40
2019-03-26T09:08:37.040Z,6.60
2019-03-26T09:11:07.301Z,6.60
2019-03-26T09:13:37.539Z,6.70
2019-03-26T09:16:07.829Z,6.90
2019-03-26T09:18:38.138Z,7.00
2019-03-26T09:21:08.352Z,7.00
2019-03-26T09:23:38.574Z,7.00
2019-03-26T09:26:08.997Z,7.10
2019-03-26T09:28:39.390Z,7.10
2019-03-26T09:31:09.601Z,7.10
2019-03-26T09:33:39.790Z,7.10
2019-03-26T09:36:10.608Z,7.00
2019-03-26T09:38:40.913Z,7.00
2019-03-26T09:41:11.129Z,7.00
2019-03-26T09:43:41.532Z,7.10
2019-03-26T09:46:11.739Z,7.10
2019-03-26T09:48:42.242Z,7.20
2019-03-26T09:51:12.458Z,7.10
2019-03-26T09:53:42.749Z,7.20
2019-03-26T09:56:12.966Z,7.20
2019-03-26T09:58:43.253Z,7.20
2019-03-26T10:01:13.516Z,7.20
2019-03-26T10:03:43.662Z,7.20
2019-03-26T10:06:23.177Z,7.10
2019-03-26T10:08:52.219Z,7.20
2019-03-26T10:11:17.845Z,7.20
2019-03-26T10:13:48.037Z,7.30
2019-03-26T10:16:18.448Z,7.40
2019-03-26T10:18:48.743Z,7.40
2019-03-26T10:21:19.156Z,7.50
2019-03-26T10:23:50.741Z,7.70
2019-03-26T10:26:21.179Z,7.70
2019-03-26T10:28:51.456Z,7.70
2019-03-26T10:31:21.842Z,7.70
2019-03-26T10:33:52.034Z,7.60
2019-03-26T10:36:22.904Z,7.60
2019-03-26T10:39:05.138Z,7.70
2019-03-26T10:41:24.928Z,7.90
2019-03-26T10:43:55.137Z,7.90
2019-03-26T10:46:25.556Z,8.00
2019-03-26T10:48:55.958Z,8.10
2019-03-26T10:51:26.517Z,8.20
2019-03-26T10:53:56.737Z,8.20
2019-03-26T10:56:27.112Z,8.10
2019-03-26T10:58:57.607Z,8.10
2019-03-26T11:01:27.833Z,8.10
2019-03-26T11:03:58.022Z,8.10
2019-03-26T11:06:28.277Z,8.20
2019-03-26T11:08:58.485Z,8.30
2019-03-26T11:11:28.854Z,8.40
2019-03-26T11:13:59.238Z,8.50
2019-03-26T11:16:29.691Z,8.40
2019-03-26T11:19:00.078Z,8.40
2019-03-26T11:21:30.440Z,8.30
2019-03-26T11:24:00.825Z,8.30
2019-03-26T11:26:31.089Z,8.40
2019-03-26T11:29:01.307Z,8.50
2019-03-26T11:31:31.479Z,8.60
2019-03-26T11:34:02.242Z,8.80
2019-03-26T11:36:32.706Z,8.90
2019-03-26T11:39:04.073Z,9.00
2019-03-26T11:41:34.334Z,8.90
2019-03-26T11:44:04.994Z,8.80
2019-03-26T11:46:35.585Z,8.90
2019-03-26T11:49:05.830Z,8.90
2019-03-26T11:51:36.285Z,8.90
2019-03-26T11:54:06.719Z,8.90
2019-03-26T11:56:37.102Z,8.90
2019-03-26T11:59:07.269Z,9.00
2019-03-26T12:01:37.446Z,9.00
2019-03-26T12:04:07.896Z,9.00
2019-03-26T12:06:38.301Z,9.10
2019-03-26T12:09:08.792Z,9.20
2019-03-26T12:11:39.843Z,9.00
2019-03-26T12:14:10.482Z,8.90
2019-03-26T12:16:40.737Z,9.00
2019-03-26T12:19:11.092Z,8.80
2019-03-26T12:21:41.382Z,8.70
2019-03-26T12:24:11.537Z,8.60
2019-03-26T12:26:41.850Z,8.50
2019-03-26T12:29:12.023Z,8.40
2019-03-26T12:31:42.401Z,8.60
2019-03-26T12:34:12.699Z,8.80
2019-03-26T12:36:43.059Z,9.10
2019-03-26T12:39:13.280Z,9.20
2019-03-26T12:41:43.670Z,9.20
2019-03-26T12:44:13.834Z,9.10
2019-03-26T12:46:44.127Z,9.10
2019-03-26T12:49:14.286Z,9.00
2019-03-26T12:51:44.706Z,9.00
2019-03-26T12:54:15.394Z,9.10
2019-03-26T12:56:47.197Z,9.10
2019-03-26T12:59:19.935Z,9.10
2019-03-26T13:01:50.371Z,9.20
2019-03-26T13:04:20.732Z,9.20
2019-03-26T13:06:52.143Z,9.20
2019-03-26T13:09:22.484Z,9.40
2019-03-26T13:11:54.245Z,9.40
2019-03-26T13:14:24.502Z,9.40
2019-03-26T13:16:54.677Z,9.40
2019-03-26T13:19:24.857Z,9.30
2019-03-26T13:21:57.636Z,9.20
2019-03-26T13:24:28.049Z,9.20
2019-03-26T13:26:58.783Z,9.20
2019-03-26T13:29:29.043Z,9.10
2019-03-26T13:31:59.230Z,9.00
2019-03-26T13:34:29.487Z,9.00
2019-03-26T13:36:59.853Z,9.00
2019-03-26T13:39:30.021Z,9.10
2019-03-26T13:42:00.319Z,9.20
2019-03-26T13:44:32.219Z,9.30
2019-03-26T13:47:02.558Z,9.50
2019-03-26T13:49:32.980Z,9.60
2019-03-26T13:52:03.256Z,9.60
2019-03-26T13:54:33.785Z,9.60
2019-03-26T13:57:04.211Z,9.60
2019-03-26T13:59:34.437Z,9.50
2019-03-26T14:02:04.979Z,9.40
2019-03-26T14:04:35.240Z,9.30
2019-03-26T14:07:05.585Z,9.30
2019-03-26T14:09:36.577Z,9.30
2019-03-26T14:12:07.006Z,9.20
2019-03-26T14:14:37.595Z,9.20
2019-03-26T14:17:07.848Z,9.20
2019-03-26T14:19:38.260Z,9.20
2019-03-26T14:22:08.764Z,9.20
2019-03-26T14:24:39.050Z,9.20
2019-03-26T14:27:09.199Z,9.30
2019-03-26T14:29:40.609Z,9.30
2019-03-26T14:32:10.818Z,9.40
2019-03-26T14:34:41.076Z,9.50
2019-03-26T14:37:11.234Z,9.60
2019-03-26T14:39:41.449Z,9.60
2019-03-26T14:42:11.694Z,9.60
2019-03-26T14:44:42.600Z,9.50
2019-03-26T14:47:13.569Z,9.50
2019-03-26T14:49:43.788Z,9.40
2019-03-26T14:52:14.719Z,9.50
2019-03-26T14:54:45.508Z,9.60
2019-03-26T14:57:15.774Z,9.60
2019-03-26T14:59:46.331Z,9.60
2019-03-26T15:02:16.576Z,9.60
2019-03-26T15:04:46.778Z,9.50
2019-03-26T15:07:17.166Z,9.40
2019-03-26T15:09:47.378Z,9.30
2019-03-26T15:12:17.681Z,9.20
2019-03-26T15:14:47.933Z,9.20
2019-03-26T15:17:18.140Z,9.20
2019-03-26T15:19:48.511Z,9.30
2019-03-26T15:22:20.405Z,9.30
2019-03-26T15:24:50.783Z,9.40
2019-03-26T15:27:21.068Z,9.40
2019-03-26T15:29:51.229Z,9.40
2019-03-26T15:32:21.829Z,9.40
2019-03-26T15:34:52.193Z,9.40
2019-03-26T15:37:22.484Z,9.50
2019-03-26T15:39:52.653Z,9.40
2019-03-26T15:42:22.845Z,9.30
2019-03-26T15:44:53.121Z,9.20
2019-03-26T15:47:23.413Z,9.20
2019-03-26T15:49:53.776Z,9.20
2019-03-26T15:52:23.977Z,9.20
2019-03-26T15:54:54.145Z,9.10
2019-03-26T15:57:24.441Z,9.10
2019-03-26T15:59:54.723Z,9.00
2019-03-26T16:02:24.904Z,8.80
2019-03-26T16:04:55.174Z,8.80
2019-03-26T16:07:25.474Z,8.80
2019-03-26T16:09:56.278Z,8.80
2019-03-26T16:12:35.751Z,8.80
2019-03-26T16:14:58.311Z,8.70
2019-03-26T16:17:28.498Z,8.70
2019-03-26T16:19:58.940Z,8.70
2019-03-26T16:22:29.326Z,8.60
2019-03-26T16:24:59.676Z,8.70
2019-03-26T16:27:29.877Z,8.70
2019-03-26T16:30:00.528Z,8.70
2019-03-26T16:32:30.917Z,8.70
2019-03-26T16:35:01.085Z,8.70
2019-03-26T16:37:31.348Z,8.70
2019-03-26T16:40:01.511Z,8.60
2019-03-26T16:42:32.144Z,8.60
2019-03-26T16:45:02.320Z,8.60
2019-03-26T16:47:32.571Z,8.60
2019-03-26T16:50:03.204Z,8.50
2019-03-26T16:52:33.374Z,8.50
2019-03-26T16:55:03.726Z,8.40
2019-03-26T16:57:34.084Z,8.40
2019-03-26T17:00:06.986Z,8.20
2019-03-26T17:02:37.321Z,8.20
2019-03-26T17:05:07.873Z,8.10
2019-03-26T17:07:38.042Z,8.10
2019-03-26T17:10:08.564Z,8.10
2019-03-26T17:12:38.719Z,8.10
2019-03-26T17:15:09.237Z,8.00
2019-03-26T17:17:39.510Z,7.90
2019-03-26T17:20:09.936Z,7.80
2019-03-26T17:22:40.219Z,7.70
2019-03-26T17:25:10.868Z,7.70
2019-03-26T17:27:41.042Z,7.60
2019-03-26T17:30:11.776Z,7.50
2019-03-26T17:32:42.039Z,7.50
2019-03-26T17:35:12.586Z,7.50
2019-03-26T17:37:42.838Z,7.50
2019-03-26T17:40:14.192Z,7.40
2019-03-26T17:42:44.442Z,7.40
2019-03-26T17:45:15.202Z,7.40
2019-03-26T17:47:45.389Z,7.40
2019-03-26T17:50:15.935Z,7.40
2019-03-26T17:52:48.003Z,7.30
2019-03-26T17:55:18.612Z,7.30
2019-03-26T17:57:48.846Z,7.30
2019-03-26T18:00:22.276Z,7.30
2019-03-26T18:02:53.989Z,7.20
2019-03-26T18:05:27.181Z,7.10
2019-03-26T18:07:57.989Z,7.10
2019-03-26T18:10:28.446Z,7.10
2019-03-26T18:12:58.646Z,7.10
2019-03-26T18:15:39.378Z,7.00
2019-03-26T18:18:09.654Z,7.10
2019-03-26T18:20:39.992Z,7.10
2019-03-26T18:23:10.182Z,7.10
2019-03-26T18:25:40.948Z,7.10
2019-03-26T18:28:11.289Z,7.10
2019-03-26T18:30:41.622Z,7.10
2019-03-26T18:33:11.815Z,7.10
2019-03-26T18:35:42.291Z,7.10
2019-03-26T18:38:14.890Z,7.20
2019-03-26T18:40:44.595Z,7.20
2019-03-26T18:43:16.737Z,7.20
2019-03-26T18:45:47.236Z,7.20
2019-03-26T18:48:23.262Z,7.20
2019-03-26T18:50:53.930Z,7.20
2019-03-26T18:53:24.152Z,7.20
2019-03-26T18:55:54.822Z,7.10
2019-03-26T18:58:25.137Z,7.20
2019-03-26T19:00:55.357Z,7.10
2019-03-26T19:03:26.104Z,7.10
2019-03-26T19:05:56.410Z,7.10
2019-03-26T19:08:26.597Z,7.10
2019-03-26T19:10:57.249Z,7.00
2019-03-26T19:13:27.647Z,7.10
2019-03-26T19:16:00.675Z,7.00
2019-03-26T19:18:34.989Z,7.00
2019-03-26T19:21:07.158Z,7.00
2019-03-26T19:23:37.479Z,7.00
2019-03-26T19:26:07.976Z,6.90
2019-03-26T19:28:38.163Z,7.00
2019-03-26T19:31:08.597Z,6.90
2019-03-26T19:33:38.992Z,6.90
2019-03-26T19:36:09.221Z,6.90
2019-03-26T19:38:39.515Z,6.90
2019-03-26T19:41:09.729Z,6.90
2019-03-26T19:43:39.940Z,6.90
2019-03-26T19:46:10.238Z,6.90
2019-03-26T19:48:40.495Z,6.90
2019-03-26T19:51:11.311Z,6.90
2019-03-26T19:53:41.866Z,6.90
2019-03-26T19:56:12.392Z,6.90
2019-03-26T19:58:43.089Z,6.90
2019-03-26T20:01:13.521Z,6.90
2019-03-26T20:03:43.793Z,6.90
2019-03-26T20:06:14.277Z,6.90
2019-03-26T20:08:44.472Z,6.80
2019-03-26T20:11:15.518Z,6.80
2019-03-26T20:13:45.897Z,6.70
2019-03-26T20:16:16.165Z,6.80
2019-03-26T20:18:46.577Z,6.80
2019-03-26T20:21:16.760Z,6.80
2019-03-26T20:23:47.114Z,6.80
2019-03-26T20:26:17.398Z,6.80
2019-03-26T20:28:47.828Z,6.90
2019-03-26T20:31:18.021Z,6.90
2019-03-26T20:33:48.376Z,6.90
2019-03-26T20:36:18.674Z,6.90
2019-03-26T20:38:51.344Z,6.90
2019-03-26T20:41:20.830Z,6.90
2019-03-26T20:43:51.040Z,6.90
2019-03-26T20:46:21.324Z,6.90
2019-03-26T20:48:51.537Z,6.90
2019-03-26T20:51:21.737Z,6.90
2019-03-26T20:53:51.971Z,6.90
2019-03-26T20:56:22.520Z,6.90
2019-03-26T20:58:52.833Z,6.90
2019-03-26T21:01:23.217Z,6.90
2019-03-26T21:03:53.579Z,6.90
2019-03-26T21:06:23.759Z,6.90
2019-03-26T21:08:54.200Z,6.90
2019-03-26T21:11:24.593Z,6.90
2019-03-26T21:13:54.804Z,6.90
2019-03-26T21:16:25.105Z,6.90
2019-03-26T21:18:55.356Z,6.90
2019-03-26T21:21:25.645Z,6.90
2019-03-26T21:23:55.874Z,6.90
2019-03-26T21:26:26.464Z,6.90
2019-03-26T21:28:56.689Z,6.90
2019-03-26T21:31:27.136Z,6.90
2019-03-26T21:33:57.361Z,6.90
2019-03-26T21:36:27.841Z,6.90
2019-03-26T21:38:58.224Z,6.90
2019-03-26T21:41:28.517Z,6.80
2019-03-26T21:44:04.057Z,6.80
2019-03-26T21:46:30.670Z,6.80
2019-03-26T21:49:01.066Z,6.80
2019-03-26T21:51:31.261Z,6.80
2019-03-26T21:54:01.452Z,6.80
2019-03-26T21:56:31.776Z,6.90
2019-03-26T21:59:01.949Z,6.80
2019-03-26T22:01:32.160Z,6.80
2019-03-26T22:04:02.464Z,6.80
2019-03-26T22:06:32.678Z,6.80
2019-03-26T22:09:03.449Z,6.80
2019-03-26T22:11:33.761Z,6.90
2019-03-26T22:14:17.058Z,6.90
2019-03-26T22:16:35.988Z,6.80
2019-03-26T22:19:06.261Z,6.80
2019-03-26T22:21:36.477Z,6.90
2019-03-26T22:24:06.766Z,6.90
2019-03-26T22:26:36.986Z,6.90
2019-03-26T22:29:07.178Z,6.90
2019-03-26T22:31:37.494Z,6.90
2019-03-26T22:34:07.787Z,6.90
2019-03-26T22:36:38.007Z,6.90
2019-03-26T22:39:08.469Z,6.90
2019-03-26T22:41:38.690Z,6.80
2019-03-26T22:44:08.974Z,6.80
2019-03-26T22:46:39.190Z,6.80
2019-03-26T22:49:09.384Z,6.80
2019-03-26T22:51:40.220Z,6.80
2019-03-26T22:54:13.568Z,6.80
2019-03-26T22:56:43.780Z,6.80
2019-03-26T22:59:14.374Z,6.80
2019-03-26T23:01:44.764Z,6.80
2019-03-26T23:04:15.058Z,6.80
2019-03-26T23:06:45.268Z,6.80
2019-03-26T23:09:15.456Z,6.80
2019-03-26T23:11:45.764Z,6.80
2019-03-26T23:14:16.397Z,6.80
2019-03-26T23:16:46.607Z,6.70
2019-03-26T23:19:16.799Z,6.70
2019-03-26T23:21:47.014Z,6.60
2019-03-26T23:24:17.264Z,6.60
2019-03-26T23:26:47.658Z,6.60
2019-03-26T23:29:17.849Z,6.60
2019-03-26T23:31:48.262Z,6.60
2019-03-26T23:34:18.657Z,6.50
2019-03-26T23:36:48.886Z,6.60
2019-03-26T23:39:19.069Z,6.70
2019-03-26T23:41:49.298Z,6.70
2019-03-26T23:44:25.624Z,6.80
2019-03-26T23:46:51.438Z,6.70
2019-03-26T23:49:21.669Z,6.70
2019-03-26T23:51:52.045Z,6.70
2019-03-26T23:54:22.366Z,6.70
2019-03-26T23:56:52.549Z,6.70
2019-03-26T23:59:23.127Z,6.80
